createdAt,value
2023-01-10T00:02:26.076Z,99988.66
2023-01-10T00:04:52.817Z,99990.78
2023-01-10T00:07:19.469Z,100002.50
2023-01-10T00:09:46.162Z,100003.34
2023-01-10T00:12:31.350Z,100013.16
2023-01-10T00:14:57.984Z,100017.69
2023-01-10T00:17:24.558Z,100025.63
2023-01-10T00:19:51.266Z,100031.28
2023-01-10T00:22:20.234Z,100042.09
2023-01-10T00:24:46.911Z,100050.09
2023-01-10T00:27:13.555Z,100045.34
2023-01-10T00:29:40.152Z,100038.84
2023-01-10T00:32:06.814Z,100048.28
2023-01-10T00:34:34.838Z,100040.31
2023-01-10T00:37:01.421Z,100050.75
2023-01-10T00:39:28.126Z,100055.91
2023-01-10T00:42:13.280Z,100070.53
2023-01-10T00:44:39.932Z,100068.88
2023-01-10T00:47:06.784Z,100077.00
2023-01-10T00:49:33.432Z,100082.97
2023-01-10T00:52:00.168Z,100088.28
2023-01-10T00:54:26.848Z,100089.13
2023-01-10T00:56:53.414Z,100103.19
2023-01-10T00:59:20.098Z,100102.22
2023-01-10T01:01:46.856Z,100100.56
2023-01-10T01:04:13.544Z,100126.09
2023-01-10T01:06:40.227Z,100126.91
2023-01-10T01:09:06.947Z,100127.75
2023-01-10T01:11:33.573Z,100138.22
2023-01-10T01:14:00.200Z,100147.53
2023-01-10T01:16:26.816Z,100155.63
2023-01-10T01:18:53.496Z,100177.84
2023-01-10T01:21:21.399Z,100174.53
2023-01-10T01:23:48.066Z,100183.16
2023-01-10T01:26:14.757Z,100185.00
2023-01-10T01:28:41.377Z,100187.16
2023-01-10T01:31:09.772Z,100191.63
2023-01-10T01:33:37.198Z,100201.41
2023-01-10T01:36:08.725Z,100205.88
2023-01-10T01:38:36.139Z,100216.84
2023-01-10T01:41:02.804Z,100215.84
2023-01-10T01:43:34.527Z,100222.97
2023-01-10T01:46:02.908Z,100217.00
2023-01-10T01:48:36.878Z,100226.47
2023-01-10T01:51:08.025Z,100235.91
2023-01-10T01:53:44.569Z,100245.03
2023-01-10T01:56:19.165Z,100251.00
2023-01-10T01:58:56.942Z,100261.63
2023-01-10T02:01:24.002Z,100268.06
2023-01-10T02:03:54.473Z,100265.09
2023-01-10T02:06:21.672Z,100278.38
2023-01-10T02:09:03.702Z,100267.09
2023-01-10T02:11:30.770Z,100274.22
2023-01-10T02:13:57.966Z,100270.91
2023-01-10T02:16:24.646Z,100271.56
2023-01-10T02:18:51.262Z,100272.06
2023-01-10T02:21:34.866Z,100263.91
2023-01-10T02:24:24.006Z,100271.19
2023-01-10T02:27:37.325Z,100289.72
2023-01-10T02:30:45.361Z,100286.72
2023-01-10T02:33:31.337Z,100300.00
2023-01-10T02:36:10.067Z,100295.69
2023-01-10T02:38:46.512Z,100301.00
2023-01-10T02:41:19.075Z,100306.47
2023-01-10T02:43:51.494Z,100306.16
2023-01-10T02:46:25.111Z,100311.59
2023-01-10T02:48:53.037Z,100304.97
2023-01-10T02:51:21.472Z,100314.41
2023-01-10T02:53:54.258Z,100317.19
2023-01-10T02:57:03.192Z,100311.09
2023-01-10T02:59:48.035Z,100321.69
2023-01-10T03:02:26.459Z,100322.81
2023-01-10T03:05:09.099Z,100327.69
2023-01-10T03:07:42.676Z,100327.53
2023-01-10T03:10:27.460Z,100330.53
2023-01-10T03:13:05.245Z,100324.72
2023-01-10T03:15:35.080Z,100344.09
2023-01-10T03:18:04.186Z,100340.78
2023-01-10T03:20:32.671Z,100340.28
2023-01-10T03:23:01.601Z,100362.53
2023-01-10T03:25:34.080Z,100372.59
2023-01-10T03:28:04.781Z,100375.28
2023-01-10T03:30:48.694Z,100385.44
2023-01-10T03:33:18.710Z,100383.66
2023-01-10T03:36:04.649Z,100386.31
2023-01-10T03:38:46.424Z,100388.09
2023-01-10T03:41:25.178Z,100394.25
2023-01-10T03:44:16.116Z,100395.59
2023-01-10T03:46:47.534Z,100396.06
2023-01-10T03:49:15.791Z,100395.50
2023-01-10T03:51:42.928Z,100408.94
2023-01-10T03:54:09.612Z,100408.63
2023-01-10T03:56:46.966Z,100418.75
2023-01-10T03:59:13.700Z,100433.00
2023-01-10T04:01:40.366Z,100433.53
2023-01-10T04:04:07.121Z,100434.00
2023-01-10T04:06:33.966Z,100454.88
2023-01-10T04:09:00.714Z,100448.22
2023-01-10T04:11:27.353Z,100447.72
2023-01-10T04:13:54.046Z,100452.13
2023-01-10T04:16:21.082Z,100452.75
2023-01-10T04:18:47.878Z,100455.91
2023-01-10T04:21:14.647Z,100454.91
2023-01-10T04:23:41.309Z,100461.78
2023-01-10T04:26:08.110Z,100459.28
2023-01-10T04:28:34.675Z,100460.44
2023-01-10T04:31:01.667Z,100474.81
2023-01-10T04:33:28.524Z,100468.47
2023-01-10T04:35:55.415Z,100471.09
2023-01-10T04:38:24.415Z,100479.69
2023-01-10T04:40:55.813Z,100480.84
2023-01-10T04:43:23.771Z,100488.66
2023-01-10T04:45:50.734Z,100491.09
2023-01-10T04:48:17.504Z,100491.03
2023-01-10T04:50:49.468Z,100493.28
2023-01-10T04:53:16.060Z,100500.34
2023-01-10T04:55:42.967Z,100498.97
2023-01-10T04:58:09.623Z,100499.47
2023-01-10T05:00:36.272Z,100502.22
2023-01-10T05:03:02.976Z,100504.66
2023-01-10T05:05:29.772Z,100518.88
2023-01-10T05:07:56.407Z,100519.19
2023-01-10T05:10:23.128Z,100516.25
2023-01-10T05:12:49.734Z,100523.41
2023-01-10T05:15:16.744Z,100525.94
2023-01-10T05:17:43.416Z,100525.31
2023-01-10T05:20:10.732Z,100534.63
2023-01-10T05:22:37.347Z,100531.69
2023-01-10T05:25:04.346Z,100541.97
2023-01-10T05:27:30.979Z,100548.47
2023-01-10T05:29:57.643Z,100555.34
2023-01-10T05:32:29.507Z,100566.56
2023-01-10T05:34:56.904Z,100571.94
2023-01-10T05:37:23.546Z,100574.28
2023-01-10T05:39:50.166Z,100576.06
2023-01-10T05:42:16.807Z,100580.75
2023-01-10T05:44:43.370Z,100581.41
2023-01-10T05:47:10.063Z,100584.22
2023-01-10T05:49:36.627Z,100588.91
2023-01-10T05:52:03.303Z,100589.81
2023-01-10T05:54:30.882Z,100593.53
2023-01-10T05:56:58.696Z,100591.72
2023-01-10T05:59:28.432Z,100598.38
2023-01-10T06:01:55.577Z,100611.63
2023-01-10T06:04:22.259Z,100605.56
2023-01-10T06:06:48.869Z,100610.88
2023-01-10T06:09:15.472Z,100607.75
2023-01-10T06:11:44.470Z,100617.63
2023-01-10T06:14:11.069Z,100619.88
2023-01-10T06:16:37.763Z,100622.75
2023-01-10T06:19:04.550Z,100629.97
2023-01-10T06:21:31.268Z,100634.22
2023-01-10T06:23:58.096Z,100628.81
2023-01-10T06:26:24.873Z,100639.66
2023-01-10T06:28:51.624Z,100640.31
2023-01-10T06:31:18.808Z,100639.94
2023-01-10T06:33:46.086Z,100629.88
2023-01-10T06:36:12.732Z,100645.38
2023-01-10T06:38:39.406Z,100654.81
2023-01-10T06:41:13.131Z,100655.13
2023-01-10T06:43:45.399Z,100676.47
2023-01-10T06:46:17.444Z,100677.19
2023-01-10T06:48:45.460Z,100683.06
2023-01-10T06:51:13.279Z,100686.31
2023-01-10T06:53:39.878Z,100690.94
2023-01-10T06:56:07.052Z,100690.38
2023-01-10T06:58:34.810Z,100687.34
2023-01-10T07:01:01.625Z,100689.91
2023-01-10T07:03:28.437Z,100690.84
2023-01-10T07:05:55.158Z,100699.22
2023-01-10T07:08:21.773Z,100700.59
2023-01-10T07:10:48.466Z,100699.19
2023-01-10T07:13:15.067Z,100702.81
2023-01-10T07:15:41.690Z,100703.63
2023-01-10T07:18:09.438Z,100701.38
2023-01-10T07:20:37.531Z,100703.03
2023-01-10T07:23:04.209Z,100703.41
2023-01-10T07:25:30.822Z,100704.41
2023-01-10T07:27:57.570Z,100714.53
2023-01-10T07:30:25.490Z,100710.81
2023-01-10T07:32:58.707Z,100714.34
2023-01-10T07:35:26.022Z,100719.84
2023-01-10T07:37:52.750Z,100726.97
2023-01-10T07:40:19.556Z,100728.72
2023-01-10T07:42:46.227Z,100735.09
2023-01-10T07:45:12.903Z,100738.69
2023-01-10T07:47:39.808Z,100740.78
2023-01-10T07:50:07.150Z,100752.31
2023-01-10T07:52:33.881Z,100749.66
2023-01-10T07:55:00.567Z,100756.72
2023-01-10T07:57:27.253Z,100752.53
2023-01-10T07:59:53.882Z,100746.78
2023-01-10T08:02:20.617Z,100762.31
2023-01-10T08:04:47.324Z,100770.97
2023-01-10T08:07:14.011Z,100779.13
2023-01-10T08:09:40.740Z,100763.91
2023-01-10T08:12:07.456Z,100754.22
2023-01-10T08:14:34.099Z,100746.00
2023-01-10T08:17:01.065Z,100750.19
2023-01-10T08:19:27.686Z,100748.53
2023-01-10T08:21:55.089Z,100736.75
2023-01-10T08:24:21.733Z,100743.91
2023-01-10T08:26:48.409Z,100755.19
2023-01-10T08:29:16.041Z,100754.09
2023-01-10T08:31:42.805Z,100752.63
2023-01-10T08:34:09.453Z,100745.31
2023-01-10T08:36:36.156Z,100755.78
2023-01-10T08:39:02.721Z,100749.94
2023-01-10T08:41:29.527Z,100758.34
2023-01-10T08:43:56.198Z,100766.19
2023-01-10T08:46:22.887Z,100768.53
2023-01-10T08:48:50.632Z,100770.69
2023-01-10T08:51:17.644Z,100764.03
2023-01-10T08:53:44.500Z,100767.06
2023-01-10T08:56:11.694Z,100773.28
2023-01-10T08:58:38.550Z,100762.91
2023-01-10T09:01:06.647Z,100766.97
2023-01-10T09:03:33.546Z,100764.63
2023-01-10T09:06:01.093Z,100757.38
2023-01-10T09:08:28.353Z,100738.63
2023-01-10T09:10:55.021Z,100745.56
2023-01-10T09:13:21.752Z,100744.56
2023-01-10T09:15:49.092Z,100739.63
2023-01-10T09:18:15.779Z,100727.84
2023-01-10T09:20:43.574Z,100734.16
2023-01-10T09:23:20.104Z,100732.72
2023-01-10T09:25:48.047Z,100716.50
2023-01-10T09:28:15.184Z,100715.53
2023-01-10T09:30:42.179Z,100709.06
2023-01-10T09:33:08.857Z,100691.09
2023-01-10T09:35:39.619Z,100687.94
2023-01-10T09:38:08.646Z,100679.34
2023-01-10T09:40:56.706Z,100667.69
2023-01-10T09:44:08.337Z,100648.44
2023-01-10T09:46:50.578Z,100643.63
2023-01-10T09:49:56.025Z,100638.47
2023-01-10T09:52:28.031Z,100635.63
2023-01-10T09:54:56.120Z,100633.28
2023-01-10T09:57:23.133Z,100632.28
2023-01-10T09:59:51.880Z,100635.63
2023-01-10T10:02:24.646Z,100629.19
2023-01-10T10:05:15.902Z,100611.72
2023-01-10T10:07:42.694Z,100617.41
2023-01-10T10:10:17.731Z,100613.28
2023-01-10T10:12:59.418Z,100607.75
2023-01-10T10:15:48.411Z,100601.28
2023-01-10T10:18:36.152Z,100590.66
2023-01-10T10:21:12.508Z,100578.19
2023-01-10T10:23:57.919Z,100566.22
2023-01-10T10:26:36.466Z,100549.97
2023-01-10T10:29:28.577Z,100548.97
2023-01-10T10:32:18.080Z,100554.13
2023-01-10T10:34:54.237Z,100543.81
2023-01-10T10:37:39.158Z,100536.53
2023-01-10T10:40:16.688Z,100532.53
2023-01-10T10:42:47.289Z,100522.25
2023-01-10T10:45:33.818Z,100524.06
2023-01-10T10:48:04.076Z,100521.25
2023-01-10T10:50:35.295Z,100515.94
2023-01-10T10:53:03.160Z,100510.97
2023-01-10T10:55:32.954Z,100510.97
2023-01-10T10:58:00.981Z,100496.00
2023-01-10T11:00:29.269Z,100497.53
2023-01-10T11:03:20.631Z,100487.19
2023-01-10T11:05:47.838Z,100489.84
2023-01-10T11:08:16.586Z,100484.72
2023-01-10T11:10:46.753Z,100471.72
2023-01-10T11:13:25.513Z,100466.94
2023-01-10T11:15:53.211Z,100456.13
2023-01-10T11:18:24.357Z,100460.97
2023-01-10T11:20:58.095Z,100451.97
2023-01-10T11:23:42.855Z,100442.34
2023-01-10T11:26:27.797Z,100446.00
2023-01-10T11:29:05.891Z,100445.81
2023-01-10T11:31:32.891Z,100430.88
2023-01-10T11:34:00.869Z,100434.53
2023-01-10T11:36:27.491Z,100429.22
2023-01-10T11:39:02.325Z,100422.56
2023-01-10T11:41:34.320Z,100417.25
2023-01-10T11:44:16.649Z,100424.22
2023-01-10T11:46:47.466Z,100417.59
2023-01-10T11:49:38.302Z,100421.41
2023-01-10T11:52:07.471Z,100403.28
2023-01-10T11:54:34.274Z,100401.97
2023-01-10T11:57:07.829Z,100398.81
2023-01-10T11:59:34.741Z,100388.00
2023-01-10T12:02:13.947Z,100390.97
2023-01-10T12:04:43.339Z,100386.66
2023-01-10T12:07:12.308Z,100385.94
2023-01-10T12:09:55.597Z,100389.00
2023-01-10T12:12:34.454Z,100372.34
2023-01-10T12:15:25.971Z,100372.78
2023-01-10T12:17:53.047Z,100358.47
2023-01-10T12:20:19.908Z,100349.34
2023-01-10T12:22:49.192Z,100350.78
2023-01-10T12:25:22.938Z,100351.94
2023-01-10T12:27:52.515Z,100346.00
2023-01-10T12:30:32.933Z,100338.63
2023-01-10T12:33:03.323Z,100342.13
2023-01-10T12:35:40.473Z,100341.38
2023-01-10T12:38:59.829Z,100337.31
2023-01-10T12:42:24.034Z,100333.25
2023-01-10T12:44:57.807Z,100337.81
2023-01-10T12:47:46.191Z,100342.53
2023-01-10T12:50:14.583Z,100344.19
2023-01-10T12:52:59.895Z,100338.63
2023-01-10T12:55:30.688Z,100333.03
2023-01-10T12:58:00.286Z,100333.31
2023-01-10T13:00:32.755Z,100333.75
2023-01-10T13:03:05.930Z,100336.75
2023-01-10T13:05:32.884Z,100327.00
2023-01-10T13:08:03.424Z,100323.84
2023-01-10T13:10:31.438Z,100324.41
2023-01-10T13:13:16.373Z,100313.41
2023-01-10T13:15:51.241Z,100315.56
2023-01-10T13:18:29.814Z,100313.44
2023-01-10T13:21:18.316Z,100312.81
2023-01-10T13:23:58.792Z,100301.91
2023-01-10T13:26:25.574Z,100314.22
2023-01-10T13:28:57.881Z,100309.25
2023-01-10T13:31:34.916Z,100298.72
2023-01-10T13:34:07.986Z,100306.53
2023-01-10T13:36:38.657Z,100293.81
2023-01-10T13:39:08.900Z,100290.06
2023-01-10T13:42:29.284Z,100293.47
2023-01-10T13:45:04.504Z,100289.50
2023-01-10T13:47:40.545Z,100280.16
2023-01-10T13:50:22.529Z,100277.81
2023-01-10T13:52:50.052Z,100287.97
2023-01-10T13:55:40.044Z,100284.25
2023-01-10T13:58:09.933Z,100285.25
2023-01-10T14:00:55.241Z,100274.97
2023-01-10T14:03:40.666Z,100270.19
2023-01-10T14:06:29.837Z,100268.66
2023-01-10T14:08:58.897Z,100259.44
2023-01-10T14:11:28.239Z,100261.50
2023-01-10T14:13:57.515Z,100265.22
2023-01-10T14:16:37.019Z,100259.91
2023-01-10T14:19:08.020Z,100256.34
2023-01-10T14:21:45.473Z,100258.25
2023-01-10T14:24:39.340Z,100243.31
2023-01-10T14:27:07.603Z,100242.88
2023-01-10T14:29:34.681Z,100255.00
2023-01-10T14:32:01.604Z,100253.38
2023-01-10T14:34:36.919Z,100248.06
2023-01-10T14:37:09.028Z,100248.16
2023-01-10T14:39:35.865Z,100247.56
2023-01-10T14:42:05.728Z,100244.09
2023-01-10T14:44:45.830Z,100245.72
2023-01-10T14:47:28.973Z,100241.09
2023-01-10T14:49:58.126Z,100230.09
2023-01-10T14:52:25.983Z,100231.56
2023-01-10T14:55:03.016Z,100228.91
2023-01-10T14:57:29.777Z,100227.78
2023-01-10T15:00:12.051Z,100230.25
2023-01-10T15:02:44.052Z,100235.78
2023-01-10T15:05:26.100Z,100231.00
2023-01-10T15:07:53.794Z,100231.00
2023-01-10T15:10:35.385Z,100226.38
2023-01-10T15:13:03.429Z,100234.78
2023-01-10T15:15:35.661Z,100213.84
2023-01-10T15:18:06.673Z,100217.34
2023-01-10T15:20:34.106Z,100216.22
2023-01-10T15:23:01.882Z,100221.97
2023-01-10T15:25:39.007Z,100211.69
2023-01-10T15:28:14.382Z,100214.97
2023-01-10T15:30:41.550Z,100206.06
2023-01-10T15:33:13.235Z,100197.50
2023-01-10T15:35:40.623Z,100194.78
2023-01-10T15:38:09.182Z,100185.25
2023-01-10T15:40:37.285Z,100194.34
2023-01-10T15:43:10.790Z,100196.19
2023-01-10T15:45:39.786Z,100183.00
2023-01-10T15:48:25.596Z,100176.88
2023-01-10T15:51:14.665Z,100179.75
2023-01-10T15:54:00.592Z,100175.31
2023-01-10T15:56:41.636Z,100172.97
2023-01-10T15:59:25.458Z,100171.72
2023-01-10T16:01:59.011Z,100166.16
2023-01-10T16:04:25.837Z,100165.63
2023-01-10T16:07:06.901Z,100160.63
2023-01-10T16:09:34.107Z,100154.25
2023-01-10T16:12:19.356Z,100155.16
2023-01-10T16:14:46.141Z,100144.41
2023-01-10T16:17:12.797Z,100152.41
2023-01-10T16:19:39.441Z,100147.97
2023-01-10T16:22:06.349Z,100143.28
2023-01-10T16:24:35.556Z,100127.28
2023-01-10T16:27:06.030Z,100124.81
2023-01-10T16:29:33.437Z,100117.91
2023-01-10T16:32:00.115Z,100113.19
2023-01-10T16:34:26.805Z,100110.19
2023-01-10T16:36:53.406Z,100109.09
2023-01-10T16:39:22.107Z,100108.38
2023-01-10T16:42:07.687Z,100111.75
2023-01-10T16:44:34.791Z,100107.44
2023-01-10T16:47:01.920Z,100109.03
2023-01-10T16:49:28.541Z,100089.38
2023-01-10T16:51:57.332Z,100092.78
2023-01-10T16:54:25.983Z,100085.38
2023-01-10T16:56:52.707Z,100090.97
2023-01-10T16:59:20.433Z,100089.69
2023-01-10T17:01:56.262Z,100077.16
2023-01-10T17:04:27.203Z,100077.00
2023-01-10T17:06:54.173Z,100074.44
2023-01-10T17:09:28.403Z,100074.78
2023-01-10T17:12:05.919Z,100064.81
2023-01-10T17:14:34.709Z,100062.22
2023-01-10T17:17:03.088Z,100053.88
2023-01-10T17:19:30.191Z,100066.75
2023-01-10T17:21:56.833Z,100063.03
2023-01-10T17:24:23.452Z,100060.91
2023-01-10T17:26:50.117Z,100063.06
2023-01-10T17:29:16.710Z,100063.06
2023-01-10T17:31:43.355Z,100050.09
2023-01-10T17:34:10.002Z,100044.84
2023-01-10T17:36:39.057Z,100044.09
2023-01-10T17:39:06.594Z,100046.34
2023-01-10T17:41:34.013Z,100043.19
2023-01-10T17:44:00.677Z,100044.56
2023-01-10T17:46:27.307Z,100052.53
2023-01-10T17:48:53.982Z,100046.78
2023-01-10T17:51:22.618Z,100047.63
2023-01-10T17:53:49.212Z,100032.78
2023-01-10T17:56:16.472Z,100035.38
2023-01-10T17:58:44.414Z,100028.00
2023-01-10T18:01:19.227Z,100030.72
2023-01-10T18:03:46.078Z,100015.25
2023-01-10T18:06:23.473Z,100019.44
2023-01-10T18:08:51.088Z,100026.75
2023-01-10T18:11:17.712Z,100006.34
2023-01-10T18:13:44.404Z,100009.19
2023-01-10T18:16:11.165Z,99997.44
2023-01-10T18:18:37.866Z,99999.44
2023-01-10T18:21:05.385Z,99997.34
2023-01-10T18:23:33.253Z,99984.22
2023-01-10T18:26:04.086Z,99984.00
2023-01-10T18:28:41.008Z,99986.56
2023-01-10T18:31:11.922Z,99954.09
2023-01-10T18:33:39.118Z,99958.84
2023-01-10T18:36:07.727Z,99961.84
2023-01-10T18:38:35.555Z,99952.03
2023-01-10T18:41:02.308Z,99952.03
2023-01-10T18:43:29.865Z,99960.94
2023-01-10T18:46:01.412Z,99966.09
2023-01-10T18:48:28.335Z,99969.13
2023-01-10T18:50:56.065Z,99958.47
2023-01-10T18:53:22.719Z,99958.47
2023-01-10T18:55:59.816Z,99964.59
2023-01-10T18:58:28.616Z,99952.53
2023-01-10T19:00:55.449Z,99947.38
2023-01-10T19:03:22.435Z,99956.31
2023-01-10T19:05:49.315Z,99946.03
2023-01-10T19:08:16.176Z,99947.28
2023-01-10T19:11:07.202Z,99951.59
2023-01-10T19:13:30.463Z,99935.84
2023-01-10T19:16:16.497Z,99949.66
2023-01-10T19:18:44.062Z,99949.03
2023-01-10T19:21:15.522Z,99925.00
2023-01-10T19:23:43.690Z,99913.38
2023-01-10T19:26:10.582Z,99907.78
2023-01-10T19:28:37.356Z,99899.78
2023-01-10T19:31:05.429Z,99902.56
2023-01-10T19:33:37.392Z,99892.19
2023-01-10T19:36:07.606Z,99885.59
2023-01-10T19:38:34.528Z,99886.06
2023-01-10T19:41:01.397Z,99875.84
2023-01-10T19:43:28.301Z,99855.75
2023-01-10T19:45:55.091Z,99854.69
2023-01-10T19:48:23.076Z,99839.25
2023-01-10T19:50:49.672Z,99841.19
2023-01-10T19:53:16.281Z,99834.31
2023-01-10T19:55:42.980Z,99838.97
2023-01-10T19:58:09.680Z,99827.06
2023-01-10T20:00:36.325Z,99820.19
2023-01-10T20:03:05.139Z,99807.88
2023-01-10T20:05:34.661Z,99820.34
2023-01-10T20:08:02.127Z,99807.06
2023-01-10T20:10:29.063Z,99818.03
2023-01-10T20:12:55.679Z,99819.22
2023-01-10T20:15:22.328Z,99816.03
2023-01-10T20:17:49.049Z,99806.50
2023-01-10T20:20:16.734Z,99807.78
2023-01-10T20:22:43.369Z,99790.28
2023-01-10T20:25:10.261Z,99793.94
2023-01-10T20:27:36.836Z,99791.91
2023-01-10T20:30:04.460Z,99772.34
2023-01-10T20:32:31.393Z,99774.22
2023-01-10T20:34:58.186Z,99773.06
2023-01-10T20:37:25.030Z,99790.47
2023-01-10T20:39:51.748Z,99774.72
2023-01-10T20:42:18.440Z,99754.75
2023-01-10T20:44:45.176Z,99757.78
2023-01-10T20:47:11.831Z,99785.91
2023-01-10T20:49:38.440Z,99781.09
2023-01-10T20:52:06.085Z,99753.41
2023-01-10T20:54:34.738Z,99689.56
2023-01-10T20:57:01.394Z,99728.03
2023-01-10T20:59:29.376Z,99746.31
2023-01-10T21:01:56.149Z,99716.66
2023-01-10T21:04:22.837Z,99718.03
2023-01-10T21:06:49.529Z,99709.66
2023-01-10T21:09:16.624Z,99700.59
2023-01-10T21:11:59.410Z,99685.84
2023-01-10T21:14:29.943Z,99693.06
2023-01-10T21:16:57.022Z,99700.03
2023-01-10T21:19:23.594Z,99696.47
2023-01-10T21:21:50.259Z,99690.25
2023-01-10T21:24:16.899Z,99683.81
2023-01-10T21:26:43.599Z,99690.25
2023-01-10T21:29:12.849Z,99686.97
2023-01-10T21:31:39.820Z,99681.28
2023-01-10T21:34:06.535Z,99679.63
2023-01-10T21:36:33.154Z,99688.03
2023-01-10T21:38:59.858Z,99669.19
2023-01-10T21:41:45.024Z,99671.66
2023-01-10T21:44:11.695Z,99666.25
2023-01-10T21:46:38.465Z,99658.28
2023-01-10T21:49:05.184Z,99652.03
2023-01-10T21:51:31.841Z,99649.09
2023-01-10T21:53:59.179Z,99641.97
2023-01-10T21:56:25.924Z,99643.50
2023-01-10T21:58:52.592Z,99646.16
2023-01-10T22:01:19.295Z,99647.97
2023-01-10T22:03:46.224Z,99653.56
2023-01-10T22:06:13.267Z,99651.56
2023-01-10T22:08:39.909Z,99646.59
2023-01-10T22:11:07.233Z,99631.75
2023-01-10T22:13:34.780Z,99637.81
2023-01-10T22:16:02.074Z,99656.03
2023-01-10T22:18:30.467Z,99649.06
2023-01-10T22:20:58.438Z,99634.22
2023-01-10T22:23:25.309Z,99643.69
2023-01-10T22:26:02.315Z,99641.03
2023-01-10T22:28:29.179Z,99637.81
2023-01-10T22:30:56.010Z,99633.97
2023-01-10T22:33:23.655Z,99621.13
2023-01-10T22:35:50.272Z,99612.97
2023-01-10T22:38:16.949Z,99617.94
2023-01-10T22:40:43.558Z,99634.53
2023-01-10T22:43:10.209Z,99612.34
2023-01-10T22:45:40.671Z,99607.84
2023-01-10T22:48:07.401Z,99606.75
2023-01-10T22:50:34.053Z,99599.53
2023-01-10T22:53:00.814Z,99577.75
2023-01-10T22:55:27.507Z,99578.50
2023-01-10T22:57:54.146Z,99584.25
2023-01-10T23:00:21.705Z,99581.53
2023-01-10T23:02:48.405Z,99577.50
2023-01-10T23:05:15.065Z,99572.19
2023-01-10T23:07:41.752Z,99556.88
2023-01-10T23:10:24.271Z,99559.34
2023-01-10T23:12:55.323Z,99541.22
2023-01-10T23:15:22.010Z,99541.19
2023-01-10T23:17:48.716Z,99542.81
2023-01-10T23:20:16.604Z,99554.03
2023-01-10T23:22:44.146Z,99526.47
2023-01-10T23:25:10.861Z,99536.88
2023-01-10T23:27:38.557Z,99535.75
2023-01-10T23:30:06.999Z,99525.50
2023-01-10T23:32:33.683Z,99545.47
2023-01-10T23:35:00.393Z,99529.50
2023-01-10T23:37:27.052Z,99533.19
2023-01-10T23:39:53.802Z,99512.19
2023-01-10T23:42:20.396Z,99518.16
2023-01-10T23:44:47.045Z,99519.34
2023-01-10T23:47:14.043Z,99503.78
2023-01-10T23:49:40.723Z,99497.78
2023-01-10T23:52:07.372Z,99497.22
2023-01-10T23:54:34.193Z,99490.09
2023-01-10T23:57:00.942Z,99491.34
2023-01-10T23:59:27.684Z,99498.97
